createdAt,value
2022-11-20T00:01:43.103Z,-0.49
2022-11-20T00:04:13.024Z,-0.56
2022-11-20T00:06:41.476Z,-0.41
2022-11-20T00:09:12.120Z,-0.51
2022-11-20T00:11:42.173Z,-0.58
2022-11-20T00:14:11.890Z,-0.54
2022-11-20T00:16:40.226Z,-0.64
2022-11-20T00:19:08.561Z,-0.59
2022-11-20T00:21:36.860Z,-0.55
2022-11-20T00:24:05.544Z,-0.60
2022-11-20T00:26:33.899Z,-0.59
2022-11-20T00:29:03.673Z,-0.67
2022-11-20T00:31:34.016Z,-0.65
2022-11-20T00:34:02.439Z,-0.69
2022-11-20T00:36:34.604Z,-0.58
2022-11-20T00:39:02.964Z,-0.67
2022-11-20T00:41:31.726Z,-0.59
2022-11-20T00:44:00.188Z,-0.58
2022-11-20T00:46:30.427Z,-0.63
2022-11-20T00:48:58.960Z,-0.67
2022-11-20T00:51:28.932Z,-0.71
2022-11-20T00:53:58.344Z,-0.65
2022-11-20T00:56:26.783Z,-0.64
2022-11-20T00:58:55.162Z,-0.68
2022-11-20T01:01:26.121Z,-0.60
2022-11-20T01:03:58.053Z,-0.67
2022-11-20T01:06:28.140Z,-0.63
2022-11-20T01:08:58.786Z,-0.57
2022-11-20T01:11:29.161Z,-0.59
2022-11-20T01:14:00.124Z,-0.59
2022-11-20T01:16:31.605Z,-0.61
2022-11-20T01:19:03.186Z,-0.64
2022-11-20T01:21:33.187Z,-0.51
2022-11-20T01:24:02.442Z,-0.53
2022-11-20T01:26:32.957Z,-0.57
2022-11-20T01:29:02.374Z,-0.52
2022-11-20T01:31:33.117Z,-0.58
2022-11-20T01:34:05.392Z,-0.63
2022-11-20T01:36:35.246Z,-0.61
2022-11-20T01:39:07.111Z,-0.58
2022-11-20T01:41:54.228Z,-0.58
2022-11-20T01:44:24.819Z,-0.61
2022-11-20T01:46:59.596Z,-0.63
2022-11-20T01:49:39.159Z,-0.60
2022-11-20T01:52:19.637Z,-0.57
2022-11-20T01:54:52.261Z,-0.63
2022-11-20T01:57:22.625Z,-0.62
2022-11-20T01:59:56.954Z,-0.55
2022-11-20T02:02:26.538Z,-0.63
2022-11-20T02:05:03.070Z,-0.65
2022-11-20T02:07:32.317Z,-0.72
2022-11-20T02:10:00.678Z,-0.72
2022-11-20T02:12:46.912Z,-0.73
2022-11-20T02:15:15.403Z,-0.75
2022-11-20T02:17:43.778Z,-0.79
2022-11-20T02:20:14.877Z,-0.84
2022-11-20T02:22:51.299Z,-0.77
2022-11-20T02:25:22.147Z,-0.73
2022-11-20T02:27:50.845Z,-0.69
2022-11-20T02:30:19.768Z,-0.80
2022-11-20T02:32:48.125Z,-0.86
2022-11-20T02:35:42.542Z,-0.86
2022-11-20T02:38:11.032Z,-0.90
2022-11-20T02:40:40.952Z,-0.90
2022-11-20T02:43:10.428Z,-0.87
2022-11-20T02:45:39.540Z,-0.80
2022-11-20T02:48:09.349Z,-0.85
2022-11-20T02:50:40.042Z,-0.86
2022-11-20T02:53:08.554Z,-0.78
2022-11-20T02:55:37.688Z,-0.87
2022-11-20T02:58:07.446Z,-0.80
2022-11-20T03:00:36.467Z,-0.80
2022-11-20T03:03:05.171Z,-0.81
2022-11-20T03:05:33.625Z,-0.82
2022-11-20T03:08:01.939Z,-0.79
2022-11-20T03:10:30.250Z,-0.73
2022-11-20T03:12:58.776Z,-0.79
2022-11-20T03:15:28.434Z,-0.71
2022-11-20T03:17:59.925Z,-0.82
2022-11-20T03:20:28.348Z,-0.88
2022-11-20T03:22:57.037Z,-0.89
2022-11-20T03:25:25.632Z,-0.91
2022-11-20T03:27:54.587Z,-0.80
2022-11-20T03:30:27.635Z,-0.84
2022-11-20T03:33:00.734Z,-0.75
2022-11-20T03:35:29.153Z,-0.74
2022-11-20T03:37:57.583Z,-0.78
2022-11-20T03:40:25.953Z,-0.78
2022-11-20T03:42:54.361Z,-0.78
2022-11-20T03:45:22.758Z,-0.73
2022-11-20T03:47:51.513Z,-0.71
2022-11-20T03:50:21.245Z,-0.69
2022-11-20T03:52:49.793Z,-0.72
2022-11-20T03:55:18.178Z,-0.72
2022-11-20T03:57:46.573Z,-0.75
2022-11-20T04:00:16.174Z,-0.76
2022-11-20T04:02:44.510Z,-0.74
2022-11-20T04:05:12.948Z,-0.70
2022-11-20T04:07:47.833Z,-0.76
2022-11-20T04:10:16.534Z,-0.72
2022-11-20T04:12:45.198Z,-0.82
2022-11-20T04:15:13.711Z,-0.81
2022-11-20T04:17:42.144Z,-0.85
2022-11-20T04:20:10.930Z,-0.93
2022-11-20T04:22:39.337Z,-0.97
2022-11-20T04:25:10.169Z,-0.92
2022-11-20T04:27:38.574Z,-0.92
2022-11-20T04:30:08.232Z,-0.97
2022-11-20T04:32:36.656Z,-0.97
2022-11-20T04:35:05.551Z,-1.02
2022-11-20T04:37:33.852Z,-1.03
2022-11-20T04:40:02.245Z,-1.03
2022-11-20T04:42:32.024Z,-1.09
2022-11-20T04:45:00.447Z,-1.04
2022-11-20T04:47:28.797Z,-1.00
2022-11-20T04:50:00.239Z,-0.95
2022-11-20T04:52:28.676Z,-0.98
2022-11-20T04:54:57.441Z,-1.04
2022-11-20T04:57:25.846Z,-1.14
2022-11-20T04:59:55.856Z,-1.04
2022-11-20T05:02:24.840Z,-1.00
2022-11-20T05:04:53.322Z,-1.02
2022-11-20T05:07:21.731Z,-1.04
2022-11-20T05:09:50.069Z,-1.06
2022-11-20T05:12:18.426Z,-1.07
2022-11-20T05:14:46.801Z,-1.01
2022-11-20T05:17:16.814Z,-1.08
2022-11-20T05:19:47.428Z,-0.99
2022-11-20T05:22:17.834Z,-1.01
2022-11-20T05:24:46.241Z,-0.85
2022-11-20T05:27:14.619Z,-0.99
2022-11-20T05:29:43.003Z,-1.02
2022-11-20T05:32:11.342Z,-1.07
2022-11-20T05:34:41.065Z,-1.00
2022-11-20T05:37:09.497Z,-1.03
2022-11-20T05:39:37.813Z,-0.98
2022-11-20T05:42:23.794Z,-0.96
2022-11-20T05:44:52.180Z,-0.92
2022-11-20T05:47:20.616Z,-0.92
2022-11-20T05:49:50.327Z,-0.90
2022-11-20T05:52:18.714Z,-0.85
2022-11-20T05:54:47.030Z,-0.88
2022-11-20T05:57:15.440Z,-0.83
2022-11-20T05:59:43.832Z,-0.79
2022-11-20T06:02:12.217Z,-0.82
2022-11-20T06:04:40.878Z,-0.87
2022-11-20T06:07:10.551Z,-0.84
2022-11-20T06:09:38.875Z,-0.87
2022-11-20T06:12:08.255Z,-0.87
2022-11-20T06:14:36.614Z,-0.89
2022-11-20T06:17:04.972Z,-0.89
2022-11-20T06:19:33.310Z,-0.89
2022-11-20T06:22:01.623Z,-0.96
2022-11-20T06:24:31.321Z,-0.96
2022-11-20T06:26:59.650Z,-0.98
2022-11-20T06:29:32.694Z,-0.92
2022-11-20T06:32:02.229Z,-0.94
2022-11-20T06:34:30.457Z,-0.91
2022-11-20T06:36:58.830Z,-0.94
2022-11-20T06:39:27.157Z,-0.92
2022-11-20T06:41:58.970Z,-0.95
2022-11-20T06:44:27.953Z,-0.97
2022-11-20T06:46:56.256Z,-1.01
2022-11-20T06:49:24.859Z,-1.02
2022-11-20T06:51:53.394Z,-1.00
2022-11-20T06:54:21.744Z,-1.04
2022-11-20T06:56:50.635Z,-1.03
2022-11-20T06:59:20.736Z,-1.01
2022-11-20T07:01:49.266Z,-1.03
2022-11-20T07:04:17.797Z,-0.99
2022-11-20T07:06:46.197Z,-1.00
2022-11-20T07:09:14.695Z,-1.02
2022-11-20T07:11:43.074Z,-1.02
2022-11-20T07:14:11.398Z,-0.97
2022-11-20T07:16:41.186Z,-1.01
2022-11-20T07:19:09.516Z,-1.00
2022-11-20T07:21:37.947Z,-0.95
2022-11-20T07:24:06.509Z,-0.95
2022-11-20T07:26:34.914Z,-0.97
2022-11-20T07:29:03.237Z,-1.01
2022-11-20T07:31:31.560Z,-1.01
2022-11-20T07:34:01.379Z,-0.94
2022-11-20T07:36:29.692Z,-0.99
2022-11-20T07:38:58.021Z,-0.99
2022-11-20T07:41:26.350Z,-1.05
2022-11-20T07:43:54.656Z,-1.01
2022-11-20T07:46:23.269Z,-1.07
2022-11-20T07:48:51.601Z,-1.10
2022-11-20T07:51:21.302Z,-1.04
2022-11-20T07:53:52.375Z,-1.08
2022-11-20T07:56:20.710Z,-1.08
2022-11-20T07:58:49.103Z,-1.03
2022-11-20T08:01:17.475Z,-0.98
2022-11-20T08:03:45.810Z,-1.00
2022-11-20T08:06:15.716Z,-1.00
2022-11-20T08:08:45.448Z,-1.01
2022-11-20T08:11:39.949Z,-1.08
2022-11-20T08:14:14.374Z,-1.07
2022-11-20T08:16:43.536Z,-1.03
2022-11-20T08:19:12.000Z,-1.00
2022-11-20T08:21:41.170Z,-0.97
2022-11-20T08:24:11.711Z,-0.98
2022-11-20T08:26:41.482Z,-0.93
2022-11-20T08:29:09.928Z,-0.92
2022-11-20T08:31:38.263Z,-0.83
2022-11-20T08:34:09.496Z,-0.82
2022-11-20T08:36:38.837Z,-0.84
2022-11-20T08:39:07.182Z,-0.84
2022-11-20T08:41:37.731Z,-0.82
2022-11-20T08:44:08.588Z,-0.79
2022-11-20T08:46:39.359Z,-0.76
2022-11-20T08:49:09.080Z,-0.79
2022-11-20T08:51:37.995Z,-0.76
2022-11-20T08:54:07.285Z,-0.77
2022-11-20T08:56:37.404Z,-0.74
2022-11-20T08:59:43.403Z,-0.74
2022-11-20T09:01:54.088Z,-0.75
2022-11-20T09:04:22.665Z,-0.70
2022-11-20T09:06:52.355Z,-0.63
2022-11-20T09:09:21.345Z,-0.59
2022-11-20T09:11:52.132Z,-0.54
2022-11-20T09:14:20.491Z,-0.56
2022-11-20T09:16:48.897Z,-0.58
2022-11-20T09:22:05.723Z,-0.51
2022-11-20T09:24:34.055Z,-0.51
2022-11-20T09:27:06.339Z,-0.54
2022-11-20T09:29:34.789Z,-0.53
2022-11-20T09:32:03.223Z,-0.45
2022-11-20T09:34:31.561Z,-0.58
2022-11-20T09:37:02.986Z,-0.54
2022-11-20T09:39:35.390Z,-0.61
2022-11-20T09:42:18.702Z,-0.62
2022-11-20T09:45:07.517Z,-0.55
2022-11-20T09:47:47.493Z,-0.54
2022-11-20T09:50:26.198Z,-0.54
2022-11-20T09:53:13.021Z,-0.42
2022-11-20T09:55:41.872Z,-0.46
2022-11-20T09:58:18.565Z,-0.39
2022-11-20T10:00:48.059Z,-0.42
2022-11-20T10:03:23.357Z,-0.44
2022-11-20T10:05:55.196Z,-0.49
2022-11-20T10:08:26.074Z,-0.50
2022-11-20T10:11:00.733Z,-0.43
2022-11-20T10:13:42.377Z,-0.47
2022-11-20T10:16:25.657Z,-0.40
2022-11-20T10:19:04.700Z,-0.51
2022-11-20T10:21:43.273Z,-0.43
2022-11-20T10:24:29.837Z,-0.36
2022-11-20T10:27:07.340Z,-0.45
2022-11-20T10:29:41.222Z,-0.45
2022-11-20T10:32:13.763Z,-0.42
2022-11-20T10:34:51.636Z,-0.47
2022-11-20T10:37:24.483Z,-0.49
2022-11-20T10:39:58.833Z,-0.45
2022-11-20T10:42:31.384Z,-0.34
2022-11-20T10:45:26.598Z,-0.38
2022-11-20T10:47:58.649Z,-0.45
2022-11-20T10:50:27.778Z,-0.35
2022-11-20T10:53:05.061Z,-0.31
2022-11-20T10:55:47.073Z,-0.24
2022-11-20T10:58:23.534Z,-0.35
2022-11-20T11:00:53.304Z,-0.27
2022-11-20T11:03:28.171Z,-0.21
2022-11-20T11:06:02.660Z,-0.14
2022-11-20T11:08:37.315Z,-0.09
2022-11-20T11:11:22.329Z,-0.07
2022-11-20T11:13:50.970Z,0.02
2022-11-20T11:16:24.752Z,0.02
2022-11-20T11:18:53.672Z,0.08
2022-11-20T11:21:26.283Z,0.24
2022-11-20T11:24:19.914Z,0.31
2022-11-20T11:26:58.300Z,0.28
2022-11-20T11:29:30.452Z,0.29
2022-11-20T11:32:08.498Z,0.30
2022-11-20T11:34:36.993Z,0.21
2022-11-20T11:37:07.957Z,0.21
2022-11-20T11:39:37.060Z,0.25
2022-11-20T11:42:05.572Z,0.24
2022-11-20T11:44:53.920Z,0.20
2022-11-20T11:47:26.506Z,0.24
2022-11-20T11:50:04.628Z,0.17
2022-11-20T11:52:38.578Z,0.10
2022-11-20T11:55:11.878Z,0.06
2022-11-20T11:57:49.909Z,0.07
2022-11-20T12:00:21.001Z,0.24
2022-11-20T12:03:00.589Z,0.19
2022-11-20T12:05:32.959Z,0.13
2022-11-20T12:08:12.372Z,0.10
2022-11-20T12:10:48.424Z,0.04
2022-11-20T12:13:27.999Z,0.00
2022-11-20T12:15:56.686Z,0.04
2022-11-20T12:18:26.831Z,0.06
2022-11-20T12:21:08.801Z,0.16
2022-11-20T12:23:50.953Z,0.21
2022-11-20T12:26:29.548Z,0.16
2022-11-20T12:29:11.842Z,0.13
2022-11-20T12:31:55.004Z,0.16
2022-11-20T12:34:46.232Z,0.24
2022-11-20T12:37:28.425Z,0.24
2022-11-20T12:40:02.997Z,0.30
2022-11-20T12:43:09.059Z,0.36
2022-11-20T12:46:03.101Z,0.39
2022-11-20T12:48:54.702Z,0.48
2022-11-20T12:52:14.480Z,0.53
2022-11-20T12:55:02.513Z,0.62
2022-11-20T12:57:39.239Z,0.76
2022-11-20T13:00:16.114Z,0.75
2022-11-20T13:03:14.724Z,0.69
2022-11-20T13:05:55.711Z,0.62
2022-11-20T13:08:27.365Z,0.72
2022-11-20T13:11:04.213Z,0.72
2022-11-20T13:13:44.328Z,0.69
2022-11-20T13:16:19.692Z,0.73
2022-11-20T13:18:48.399Z,0.77
2022-11-20T13:21:18.771Z,0.73
2022-11-20T13:23:49.193Z,0.71
2022-11-20T13:26:20.949Z,0.71
2022-11-20T13:29:10.546Z,0.66
2022-11-20T13:31:43.754Z,0.68
2022-11-20T13:34:25.033Z,0.68
2022-11-20T13:36:55.737Z,0.73
2022-11-20T13:39:30.305Z,0.72
2022-11-20T13:42:00.724Z,0.69
2022-11-20T13:44:32.668Z,0.65
2022-11-20T13:47:01.041Z,0.74
2022-11-20T13:49:34.233Z,0.76
2022-11-20T13:52:26.205Z,0.82
2022-11-20T13:55:17.717Z,0.78
2022-11-20T13:58:12.575Z,0.65
2022-11-20T14:00:47.060Z,0.66
2022-11-20T14:03:37.913Z,0.64
2022-11-20T14:06:18.036Z,0.57
2022-11-20T14:08:49.270Z,0.46
2022-11-20T14:11:21.961Z,0.44
2022-11-20T14:13:57.301Z,0.41
2022-11-20T14:16:27.169Z,0.48
2022-11-20T14:18:57.034Z,0.41
2022-11-20T14:21:27.861Z,0.52
2022-11-20T14:24:04.636Z,0.57
2022-11-20T14:26:36.128Z,0.52
2022-11-20T14:29:04.575Z,0.49
2022-11-20T14:31:33.001Z,0.45
2022-11-20T14:34:04.287Z,0.53
2022-11-20T14:36:32.706Z,0.56
2022-11-20T14:39:01.161Z,0.53
2022-11-20T14:41:30.320Z,0.48
2022-11-20T14:44:02.928Z,0.42
2022-11-20T14:46:33.694Z,0.49
2022-11-20T14:49:04.046Z,0.49
2022-11-20T14:51:35.831Z,0.45
2022-11-20T14:54:14.597Z,0.34
2022-11-20T14:56:43.351Z,0.35
2022-11-20T14:59:13.284Z,0.41
2022-11-20T15:01:41.886Z,0.35
2022-11-20T15:04:12.976Z,0.33
2022-11-20T15:06:52.744Z,0.29
2022-11-20T15:09:21.437Z,0.27
2022-11-20T15:11:56.942Z,0.26
2022-11-20T15:14:28.138Z,0.22
2022-11-20T15:16:57.064Z,0.30
2022-11-20T15:19:27.577Z,0.20
2022-11-20T15:21:56.117Z,0.26
2022-11-20T15:24:24.851Z,0.27
2022-11-20T15:26:53.735Z,0.33
2022-11-20T15:29:24.673Z,0.24
2022-11-20T15:31:55.186Z,0.20
2022-11-20T15:34:24.071Z,0.32
2022-11-20T15:36:53.629Z,0.33
2022-11-20T15:39:22.611Z,0.31
2022-11-20T15:41:51.010Z,0.28
2022-11-20T15:44:19.693Z,0.35
2022-11-20T15:46:48.330Z,0.33
2022-11-20T15:49:22.636Z,0.34
2022-11-20T15:51:53.684Z,0.28
2022-11-20T15:54:24.340Z,0.26
2022-11-20T15:56:54.269Z,0.36
2022-11-20T15:59:22.955Z,0.33
2022-11-20T16:01:51.350Z,0.30
2022-11-20T16:04:21.630Z,0.38
2022-11-20T16:06:50.232Z,0.33
2022-11-20T16:09:18.535Z,0.29
2022-11-20T16:11:46.837Z,0.25
2022-11-20T16:14:32.951Z,0.19
2022-11-20T16:17:02.511Z,0.24
2022-11-20T16:19:32.381Z,0.17
2022-11-20T16:22:02.956Z,0.17
2022-11-20T16:24:32.111Z,0.08
2022-11-20T16:27:00.567Z,0.10
2022-11-20T16:29:28.946Z,0.12
2022-11-20T16:31:58.776Z,0.08
2022-11-20T16:34:27.413Z,0.02
2022-11-20T16:37:02.095Z,-0.06
2022-11-20T16:39:30.408Z,-0.08
2022-11-20T16:41:58.883Z,-0.07
2022-11-20T16:44:27.524Z,-0.09
2022-11-20T16:46:56.770Z,0.00
2022-11-20T16:49:25.116Z,-0.06
2022-11-20T16:51:53.573Z,0.01
2022-11-20T16:54:23.741Z,-0.10
2022-11-20T16:56:53.491Z,-0.10
2022-11-20T16:59:21.826Z,-0.08
2022-11-20T17:01:50.823Z,-0.15
2022-11-20T17:04:19.263Z,-0.07
2022-11-20T17:06:47.830Z,-0.09
2022-11-20T17:09:16.301Z,-0.16
2022-11-20T17:11:46.136Z,-0.10
2022-11-20T17:14:14.614Z,-0.12
2022-11-20T17:16:42.998Z,-0.14
2022-11-20T17:19:11.654Z,-0.26
2022-11-20T17:21:40.386Z,-0.30
2022-11-20T17:24:11.940Z,-0.30
2022-11-20T17:26:42.498Z,-0.24
2022-11-20T17:29:14.787Z,-0.28
2022-11-20T17:31:44.015Z,-0.31
2022-11-20T17:34:15.220Z,-0.24
2022-11-20T17:36:45.878Z,-0.27
2022-11-20T17:39:15.190Z,-0.26
2022-11-20T17:41:43.918Z,-0.30
2022-11-20T17:44:14.110Z,-0.31
2022-11-20T17:46:42.634Z,-0.33
2022-11-20T17:49:11.213Z,-0.25
2022-11-20T17:51:40.684Z,-0.20
2022-11-20T17:54:09.147Z,-0.19
2022-11-20T17:56:55.336Z,-0.22
2022-11-20T17:59:25.593Z,-0.20
2022-11-20T18:01:56.734Z,-0.28
2022-11-20T18:04:27.099Z,-0.23
2022-11-20T18:06:55.545Z,-0.27
2022-11-20T18:09:24.167Z,-0.26
2022-11-20T18:11:52.470Z,-0.32
2022-11-20T18:14:36.409Z,-0.38
2022-11-20T18:17:07.955Z,-0.43
2022-11-20T18:19:42.703Z,-0.36
2022-11-20T18:22:20.753Z,-0.38
2022-11-20T18:24:49.082Z,-0.46
2022-11-20T18:27:19.777Z,-0.43
2022-11-20T18:29:51.716Z,-0.41
2022-11-20T18:32:22.756Z,-0.43
2022-11-20T18:34:51.909Z,-0.43
2022-11-20T18:37:20.775Z,-0.46
2022-11-20T18:39:50.313Z,-0.44
2022-11-20T18:42:36.004Z,-0.44
2022-11-20T18:45:05.641Z,-0.49
2022-11-20T18:47:37.883Z,-0.47
2022-11-20T18:50:08.398Z,-0.52
2022-11-20T18:52:41.884Z,-0.48
2022-11-20T18:55:12.061Z,-0.54
2022-11-20T18:57:40.480Z,-0.56
2022-11-20T19:00:10.308Z,-0.58
2022-11-20T19:02:42.596Z,-0.63
2022-11-20T19:05:11.884Z,-0.68
2022-11-20T19:07:40.333Z,-0.63
2022-11-20T19:10:09.254Z,-0.57
2022-11-20T19:12:37.605Z,-0.64
2022-11-20T19:15:06.750Z,-0.74
2022-11-20T19:17:35.175Z,-0.81
2022-11-20T19:20:05.310Z,-0.71
2022-11-20T19:22:33.668Z,-0.81
2022-11-20T19:25:02.047Z,-0.77
2022-11-20T19:27:30.371Z,-0.82
2022-11-20T19:30:03.244Z,-0.72
2022-11-20T19:32:32.440Z,-0.79
2022-11-20T19:35:00.824Z,-0.80
2022-11-20T19:37:33.166Z,-0.82
2022-11-20T19:40:04.193Z,-0.84
2022-11-20T19:42:33.112Z,-0.78
2022-11-20T19:45:01.473Z,-0.76
2022-11-20T19:47:46.350Z,-0.79
2022-11-20T19:50:18.234Z,-0.82
2022-11-20T19:52:47.900Z,-0.76
2022-11-20T19:55:16.381Z,-0.80
2022-11-20T19:57:44.682Z,-0.81
2022-11-20T20:00:17.279Z,-0.81
2022-11-20T20:02:50.611Z,-0.72
2022-11-20T20:05:18.925Z,-0.79
2022-11-20T20:07:48.724Z,-0.82
2022-11-20T20:10:17.828Z,-0.82
2022-11-20T20:12:46.183Z,-0.82
2022-11-20T20:15:14.836Z,-0.83
2022-11-20T20:17:43.157Z,-0.78
2022-11-20T20:20:12.348Z,-0.82
2022-11-20T20:22:40.688Z,-0.85
2022-11-20T20:25:10.894Z,-0.86
2022-11-20T20:27:39.261Z,-0.83
2022-11-20T20:30:11.840Z,-0.86
2022-11-20T20:32:40.247Z,-0.84
2022-11-20T20:35:09.377Z,-0.90
2022-11-20T20:37:37.724Z,-0.90
2022-11-20T20:40:09.786Z,-0.98
2022-11-20T20:42:43.498Z,-0.98
2022-11-20T20:45:12.197Z,-1.03
2022-11-20T20:47:41.833Z,-1.09
2022-11-20T20:50:13.182Z,-1.11
2022-11-20T20:52:41.668Z,-1.17
2022-11-20T20:55:10.657Z,-1.19
2022-11-20T20:57:39.013Z,-1.21
2022-11-20T21:00:10.323Z,-1.24
2022-11-20T21:02:38.809Z,-1.31
2022-11-20T21:05:07.632Z,-1.37
2022-11-20T21:07:56.039Z,-1.39
2022-11-20T21:10:24.528Z,-1.32
2022-11-20T21:12:52.868Z,-1.34
2022-11-20T21:15:22.622Z,-1.36
2022-11-20T21:17:50.995Z,-1.37
2022-11-20T21:20:33.310Z,-1.42
2022-11-20T21:23:01.614Z,-1.44
2022-11-20T21:25:29.986Z,-1.50
2022-11-20T21:27:59.662Z,-1.50
2022-11-20T21:30:29.410Z,-1.48
2022-11-20T21:32:57.792Z,-1.53
2022-11-20T21:35:26.225Z,-1.56
2022-11-20T21:37:55.102Z,-1.59
2022-11-20T21:40:23.544Z,-1.60
2022-11-20T21:42:52.046Z,-1.66
2022-11-20T21:45:20.361Z,-1.68
2022-11-20T21:48:00.200Z,-1.71
2022-11-20T21:50:30.278Z,-1.77
2022-11-20T21:52:58.718Z,-1.79
2022-11-20T21:55:27.005Z,-1.80
2022-11-20T21:57:55.371Z,-1.84
2022-11-20T22:00:23.853Z,-1.85
2022-11-20T22:02:53.616Z,-1.87
2022-11-20T22:05:22.029Z,-1.91
2022-11-20T22:07:50.428Z,-1.92
2022-11-20T22:10:18.951Z,-1.94
2022-11-20T22:12:47.358Z,-1.94
2022-11-20T22:15:23.824Z,-1.95
2022-11-20T22:18:14.002Z,-1.97
2022-11-20T22:20:42.637Z,-2.02
2022-11-20T22:23:11.010Z,-2.02
2022-11-20T22:25:39.471Z,-1.99
2022-11-20T22:28:07.803Z,-2.03
2022-11-20T22:30:36.277Z,-2.07
2022-11-20T22:33:11.979Z,-2.09
2022-11-20T22:35:41.829Z,-2.11
2022-11-20T22:38:10.284Z,-2.11
2022-11-20T22:40:38.576Z,-2.11
2022-11-20T22:43:07.377Z,-2.12
2022-11-20T22:45:35.720Z,-2.13
2022-11-20T22:48:04.368Z,-2.15
2022-11-20T22:50:34.085Z,-2.18
2022-11-20T22:53:02.571Z,-2.19
2022-11-20T22:55:30.868Z,-2.20
2022-11-20T22:57:59.202Z,-2.22
2022-11-20T23:00:28.268Z,-2.22
2022-11-20T23:02:56.589Z,-2.24
2022-11-20T23:05:24.987Z,-2.24
2022-11-20T23:07:54.656Z,-2.25
2022-11-20T23:10:23.003Z,-2.24
2022-11-20T23:12:51.317Z,-2.26
2022-11-20T23:15:19.655Z,-2.27
2022-11-20T23:17:48.017Z,-2.28
2022-11-20T23:20:16.478Z,-2.28
2022-11-20T23:22:44.872Z,-2.25
2022-11-20T23:25:14.610Z,-2.20
2022-11-20T23:27:42.929Z,-2.18
2022-11-20T23:30:12.121Z,-2.15
2022-11-20T23:32:40.645Z,-2.13
2022-11-20T23:35:09.873Z,-2.08
2022-11-20T23:37:38.237Z,-2.06
2022-11-20T23:40:07.965Z,-2.04
2022-11-20T23:42:37.686Z,-2.02
2022-11-20T23:45:06.545Z,-2.02
2022-11-20T23:47:34.986Z,-2.01
2022-11-20T23:50:03.281Z,-2.00
2022-11-20T23:52:31.609Z,-1.97
2022-11-20T23:55:00.033Z,-1.97
2022-11-20T23:57:28.341Z,-1.98
2022-11-20T23:59:58.027Z,-1.99
